sensor_id;sensor_type;location;lat;lon;timestamp;pressure;altitude;pressure_sealevel;temperature;humidity
8049;BME280;20935;42.660;23.342;2023-05-01T00:00:25;94707.47;;;21.83;46.48
8049;BME280;20935;42.660;23.342;2023-05-01T00:03:10;94712.16;;;21.83;46.47
8049;BME280;20935;42.660;23.342;2023-05-01T00:06:00;94709.44;;;21.83;46.58
8049;BME280;20935;42.660;23.342;2023-05-01T00:08:47;94715.19;;;21.85;46.74
8049;BME280;20935;42.660;23.342;2023-05-01T00:11:33;94718.69;;;21.85;46.75
8049;BME280;20935;42.660;23.342;2023-05-01T00:14:21;94717.16;;;21.84;46.66
8049;BME280;20935;42.660;23.342;2023-05-01T00:17:07;94714.91;;;21.83;46.71
8049;BME280;20935;42.660;23.342;2023-05-01T00:19:52;94719.59;;;21.82;46.54
8049;BME280;20935;42.660;23.342;2023-05-01T00:22:38;94714.91;;;21.83;46.67
8049;BME280;20935;42.660;23.342;2023-05-01T00:25:23;94721.56;;;21.82;46.52
8049;BME280;20935;42.660;23.342;2023-05-01T00:28:09;94716.09;;;21.82;46.57
8049;BME280;20935;42.660;23.342;2023-05-01T00:30:56;94723.84;;;21.83;46.86
8049;BME280;20935;42.660;23.342;2023-05-01T00:33:41;94722.31;;;21.82;46.74
8049;BME280;20935;42.660;23.342;2023-05-01T00:36:26;94720.34;;;21.83;46.81
8049;BME280;20935;42.660;23.342;2023-05-01T00:39:12;94722.50;;;21.79;46.80
8049;BME280;20935;42.660;23.342;2023-05-01T00:41:57;94723.91;;;21.74;46.72
8049;BME280;20935;42.660;23.342;2023-05-01T00:44:42;94726.34;;;21.72;47.01
8049;BME280;20935;42.660;23.342;2023-05-01T00:47:29;94735.75;;;21.71;46.85
8049;BME280;20935;42.660;23.342;2023-05-01T00:50:15;94732.25;;;21.71;46.65
8049;BME280;20935;42.660;23.342;2023-05-01T00:53:01;94734.22;;;21.70;46.65
8049;BME280;20935;42.660;23.342;2023-05-01T00:55:47;94740.44;;;21.71;46.88
8049;BME280;20935;42.660;23.342;2023-05-01T00:58:33;94737.72;;;21.71;46.82
8049;BME280;20935;42.660;23.342;2023-05-01T01:01:19;94742.41;;;21.70;47.03
8049;BME280;20935;42.660;23.342;2023-05-01T01:04:06;94736.94;;;21.70;46.71
8049;BME280;20935;42.660;23.342;2023-05-01T01:07:05;94739.69;;;21.70;46.58
8049;BME280;20935;42.660;23.342;2023-05-01T01:09:59;94738.91;;;21.70;47.09
8049;BME280;20935;42.660;23.342;2023-05-01T01:12:53;94739.69;;;21.70;46.90
8049;BME280;20935;42.660;23.342;2023-05-01T01:15:43;94745.88;;;21.71;47.00
8049;BME280;20935;42.660;23.342;2023-05-01T01:18:35;94741.66;;;21.70;46.68
8049;BME280;20935;42.660;23.342;2023-05-01T01:21:26;94746.81;;;21.68;47.02
8049;BME280;20935;42.660;23.342;2023-05-01T01:24:35;94750.75;;;21.67;47.12
8049;BME280;20935;42.660;23.342;2023-05-01T01:27:42;94749.56;;;21.68;46.77
8049;BME280;20935;42.660;23.342;2023-05-01T01:34:03;94757.56;;;21.71;46.98
8049;BME280;20935;42.660;23.342;2023-05-01T01:36:59;94758.31;;;21.72;46.95
8049;BME280;20935;42.660;23.342;2023-05-01T01:39:50;94762.25;;;21.71;46.63
8049;BME280;20935;42.660;23.342;2023-05-01T01:42:39;94759.53;;;21.71;46.68
8049;BME280;20935;42.660;23.342;2023-05-01T01:45:30;94758.75;;;21.70;46.97
8049;BME280;20935;42.660;23.342;2023-05-01T01:48:20;94751.53;;;21.67;47.00
8049;BME280;20935;42.660;23.342;2023-05-01T01:51:12;94760.00;;;21.69;46.65
8049;BME280;20935;42.660;23.342;2023-05-01T01:53:59;94758.50;;;21.68;46.87
8049;BME280;20935;42.660;23.342;2023-05-01T01:56:47;94756.97;;;21.67;46.78
8049;BME280;20935;42.660;23.342;2023-05-01T01:59:34;94749.56;;;21.68;46.89
8049;BME280;20935;42.660;23.342;2023-05-01T02:02:20;94746.56;;;21.66;47.05
8049;BME280;20935;42.660;23.342;2023-05-01T02:05:06;94749.72;;;21.64;47.13
8049;BME280;20935;42.660;23.342;2023-05-01T02:07:55;94747.47;;;21.63;47.07
8049;BME280;20935;42.660;23.342;2023-05-01T02:10:42;94744.28;;;21.64;47.04
8049;BME280;20935;42.660;23.342;2023-05-01T02:13:30;94757.16;;;21.64;46.78
8049;BME280;20935;42.660;23.342;2023-05-01T02:16:18;94749.72;;;21.64;46.74
8049;BME280;20935;42.660;23.342;2023-05-01T02:19:04;94750.50;;;21.65;46.86
8049;BME280;20935;42.660;23.342;2023-05-01T02:21:51;94748.53;;;21.65;46.77
8049;BME280;20935;42.660;23.342;2023-05-01T02:24:41;94747.00;;;21.64;46.97
8049;BME280;20935;42.660;23.342;2023-05-01T02:27:30;94742.31;;;21.65;46.69
8049;BME280;20935;42.660;23.342;2023-05-01T02:30:16;94748.53;;;21.65;46.83
8049;BME280;20935;42.660;23.342;2023-05-01T02:33:02;94748.53;;;21.65;46.75
8049;BME280;20935;42.660;23.342;2023-05-01T02:35:48;94753.22;;;21.65;46.81
8049;BME280;20935;42.660;23.342;2023-05-01T02:38:33;94748.53;;;21.65;46.60
8049;BME280;20935;42.660;23.342;2023-05-01T02:41:21;94749.72;;;21.64;46.77
8049;BME280;20935;42.660;23.342;2023-05-01T02:44:10;94750.94;;;21.63;46.60
8049;BME280;20935;42.660;23.342;2023-05-01T02:46:57;94749.91;;;21.61;46.84
8049;BME280;20935;42.660;23.342;2023-05-01T02:49:45;94748.22;;;21.63;46.83
8049;BME280;20935;42.660;23.342;2023-05-01T02:52:31;94752.91;;;21.63;46.63
8049;BME280;20935;42.660;23.342;2023-05-01T02:55:17;94747.47;;;21.63;46.54
8049;BME280;20935;42.660;23.342;2023-05-01T02:58:04;94752.47;;;21.64;46.95
8049;BME280;20935;42.660;23.342;2023-05-01T03:00:49;94752.47;;;21.64;46.86
8049;BME280;20935;42.660;23.342;2023-05-01T03:03:35;94753.22;;;21.65;46.62
8049;BME280;20935;42.660;23.342;2023-05-01T03:06:20;94753.97;;;21.65;46.58
8049;BME280;20935;42.660;23.342;2023-05-01T03:09:06;94760.91;;;21.66;46.70
8049;BME280;20935;42.660;23.342;2023-05-01T03:11:51;94764.41;;;21.67;46.75
8049;BME280;20935;42.660;23.342;2023-05-01T03:14:38;94764.41;;;21.67;46.86
8049;BME280;20935;42.660;23.342;2023-05-01T03:17:24;94767.34;;;21.54;46.97
8049;BME280;20935;42.660;23.342;2023-05-01T03:20:10;94759.66;;;21.52;46.98
8049;BME280;20935;42.660;23.342;2023-05-01T03:22:56;94766.31;;;21.51;46.66
8049;BME280;20935;42.660;23.342;2023-05-01T03:25:42;94768.75;;;21.49;46.85
8049;BME280;20935;42.660;23.342;2023-05-01T03:28:27;94769.22;;;21.48;47.15
8049;BME280;20935;42.660;23.342;2023-05-01T03:31:14;94771.63;;;21.46;47.29
8049;BME280;20935;42.660;23.342;2023-05-01T03:33:59;94776.09;;;21.58;46.96
8049;BME280;20935;42.660;23.342;2023-05-01T03:36:44;94776.25;;;21.64;46.75
8049;BME280;20935;42.660;23.342;2023-05-01T03:39:30;94783.97;;;21.65;46.70
8049;BME280;20935;42.660;23.342;2023-05-01T03:42:15;94780.47;;;21.65;46.44
8049;BME280;20935;42.660;23.342;2023-05-01T03:45:01;94785.63;;;21.63;46.81
8049;BME280;20935;42.660;23.342;2023-05-01T03:47:48;94795.03;;;21.62;46.88
8049;BME280;20935;42.660;23.342;2023-05-01T03:50:33;94795.03;;;21.62;46.76
8049;BME280;20935;42.660;23.342;2023-05-01T03:53:18;94804.72;;;21.63;46.76
8049;BME280;20935;42.660;23.342;2023-05-01T03:56:04;94806.69;;;21.62;46.73
8049;BME280;20935;42.660;23.342;2023-05-01T03:58:49;94801.88;;;21.57;46.60
8049;BME280;20935;42.660;23.342;2023-05-01T04:01:35;94813.69;;;21.54;46.90
8049;BME280;20935;42.660;23.342;2023-05-01T04:04:21;94809.75;;;21.55;46.72
8049;BME280;20935;42.660;23.342;2023-05-01T04:07:07;94811.28;;;21.56;46.59
8049;BME280;20935;42.660;23.342;2023-05-01T04:09:52;94804.13;;;21.59;46.89
8049;BME280;20935;42.660;23.342;2023-05-01T04:12:38;94806.41;;;21.60;46.58
8049;BME280;20935;42.660;23.342;2023-05-01T04:15:24;94811.09;;;21.60;47.00
8049;BME280;20935;42.660;23.342;2023-05-01T04:18:09;94804.88;;;21.59;46.66
8049;BME280;20935;42.660;23.342;2023-05-01T04:20:56;94804.44;;;21.61;46.79
8049;BME280;20935;42.660;23.342;2023-05-01T04:23:42;94807.44;;;21.63;46.78
8049;BME280;20935;42.660;23.342;2023-05-01T04:26:27;94803.22;;;21.62;46.59
8049;BME280;20935;42.660;23.342;2023-05-01T04:29:13;94810.91;;;21.63;46.55
8049;BME280;20935;42.660;23.342;2023-05-01T04:31:58;94811.69;;;21.64;46.41
8049;BME280;20935;42.660;23.342;2023-05-01T04:34:44;94813.19;;;21.65;46.78
8049;BME280;20935;42.660;23.342;2023-05-01T04:37:30;94807.75;;;21.65;46.49
8049;BME280;20935;42.660;23.342;2023-05-01T04:40:16;94811.22;;;21.65;46.43
8049;BME280;20935;42.660;23.342;2023-05-01T04:43:01;94820.88;;;21.66;46.64
8049;BME280;20935;42.660;23.342;2023-05-01T04:45:47;94817.72;;;21.68;46.37
8049;BME280;20935;42.660;23.342;2023-05-01T04:48:32;94821.19;;;21.68;46.43
8049;BME280;20935;42.660;23.342;2023-05-01T04:51:18;94820.72;;;21.70;46.31
8049;BME280;20935;42.660;23.342;2023-05-01T04:54:05;94817.25;;;21.69;46.56
8049;BME280;20935;42.660;23.342;2023-05-01T04:56:50;94826.94;;;21.70;46.23
8049;BME280;20935;42.660;23.342;2023-05-01T04:59:36;94831.16;;;21.71;46.35
8049;BME280;20935;42.660;23.342;2023-05-01T05:02:21;94829.97;;;21.72;46.58
8049;BME280;20935;42.660;23.342;2023-05-01T05:05:07;94832.22;;;21.74;46.29
8049;BME280;20935;42.660;23.342;2023-05-01T05:07:53;94834.78;;;21.77;46.48
8049;BME280;20935;42.660;23.342;2023-05-01T05:10:40;94843.13;;;21.74;46.30
8049;BME280;20935;42.660;23.342;2023-05-01T05:13:26;94843.59;;;21.72;46.70
8049;BME280;20935;42.660;23.342;2023-05-01T05:16:11;94840.69;;;21.76;46.34
8049;BME280;20935;42.660;23.342;2023-05-01T05:18:57;94848.44;;;21.77;46.20
8049;BME280;20935;42.660;23.342;2023-05-01T05:21:42;94850.66;;;21.79;46.43
8049;BME280;20935;42.660;23.342;2023-05-01T05:24:27;94857.63;;;21.80;46.40
8049;BME280;20935;42.660;23.342;2023-05-01T05:27:14;94857.19;;;21.81;46.32
8049;BME280;20935;42.660;23.342;2023-05-01T05:30:00;94857.91;;;21.82;46.20
8049;BME280;20935;42.660;23.342;2023-05-01T05:32:45;94864.88;;;21.83;46.18
8049;BME280;20935;42.660;23.342;2023-05-01T05:35:31;94860.94;;;21.84;46.15
8049;BME280;20935;42.660;23.342;2023-05-01T05:38:16;94866.41;;;21.84;46.20
8049;BME280;20935;42.660;23.342;2023-05-01T05:41:02;94860.50;;;21.85;46.42
8049;BME280;20935;42.660;23.342;2023-05-01T05:43:48;94858.50;;;21.86;46.13
8049;BME280;20935;42.660;23.342;2023-05-01T05:46:34;94861.53;;;21.88;46.51
8049;BME280;20935;42.660;23.342;2023-05-01T05:49:20;94859.56;;;21.88;46.11
8049;BME280;20935;42.660;23.342;2023-05-01T05:52:05;94870.75;;;21.90;46.20
8049;BME280;20935;42.660;23.342;2023-05-01T05:54:51;94865.31;;;21.90;46.38
8049;BME280;20935;42.660;23.342;2023-05-01T05:57:36;94864.13;;;21.91;46.08
8049;BME280;20935;42.660;23.342;2023-05-01T06:00:23;94870.34;;;21.92;46.07
8049;BME280;20935;42.660;23.342;2023-05-01T06:03:08;94875.03;;;21.91;46.09
8049;BME280;20935;42.660;23.342;2023-05-01T06:05:54;94876.53;;;21.92;46.08
8049;BME280;20935;42.660;23.342;2023-05-01T06:08:39;94883.03;;;21.95;46.08
8049;BME280;20935;42.660;23.342;2023-05-01T06:11:25;94876.38;;;21.96;46.05
8049;BME280;20935;42.660;23.342;2023-05-01T06:14:10;94879.09;;;21.96;46.31
8049;BME280;20935;42.660;23.342;2023-05-01T06:16:57;94885.94;;;21.91;46.21
8049;BME280;20935;42.660;23.342;2023-05-01T06:19:42;94885.94;;;21.91;46.29
8049;BME280;20935;42.660;23.342;2023-05-01T06:22:28;94876.97;;;21.91;46.37
8049;BME280;20935;42.660;23.342;2023-05-01T06:27:58;94884.56;;;21.96;46.14
8049;BME280;20935;42.660;23.342;2023-05-01T06:30:45;94878.94;;;21.99;46.17
8049;BME280;20935;42.660;23.342;2023-05-01T06:33:32;94881.19;;;22.01;46.07
8049;BME280;20935;42.660;23.342;2023-05-01T06:36:18;94884.38;;;21.99;46.30
8049;BME280;20935;42.660;23.342;2023-05-01T06:39:03;94880.72;;;22.02;46.02
8049;BME280;20935;42.660;23.342;2023-05-01T06:41:49;94877.53;;;22.04;46.20
8049;BME280;20935;42.660;23.342;2023-05-01T06:44:34;94877.06;;;22.06;46.09
8049;BME280;20935;42.660;23.342;2023-05-01T06:47:20;94879.78;;;22.06;46.17
8049;BME280;20935;42.660;23.342;2023-05-01T06:50:08;94882.06;;;22.07;46.15
8049;BME280;20935;42.660;23.342;2023-05-01T06:52:54;94884.78;;;22.07;45.95
8049;BME280;20935;42.660;23.342;2023-05-01T06:55:39;94878.13;;;22.08;46.22
8049;BME280;20935;42.660;23.342;2023-05-01T06:58:25;94885.09;;;22.09;45.85
8049;BME280;20935;42.660;23.342;2023-05-01T07:01:10;94883.41;;;22.12;46.11
8049;BME280;20935;42.660;23.342;2023-05-01T07:03:56;94886.13;;;22.12;46.29
8049;BME280;20935;42.660;23.342;2023-05-01T07:06:43;94883.41;;;22.12;46.04
8049;BME280;20935;42.660;23.342;2023-05-01T07:09:28;94879.47;;;22.13;45.82
8049;BME280;20935;42.660;23.342;2023-05-01T07:12:14;94887.66;;;22.13;45.94
8049;BME280;20935;42.660;23.342;2023-05-01T07:14:59;94890.38;;;22.13;45.92
8049;BME280;20935;42.660;23.342;2023-05-01T07:17:45;94889.13;;;22.14;45.93
8049;BME280;20935;42.660;23.342;2023-05-01T07:20:30;94889.44;;;22.16;45.81
8049;BME280;20935;42.660;23.342;2023-05-01T07:23:17;94894.13;;;22.15;45.80
8049;BME280;20935;42.660;23.342;2023-05-01T07:26:03;94893.69;;;22.17;46.07
8049;BME280;20935;42.660;23.342;2023-05-01T07:28:48;94892.44;;;22.18;45.82
8049;BME280;20935;42.660;23.342;2023-05-01T07:31:34;94896.41;;;22.17;45.69
8049;BME280;20935;42.660;23.342;2023-05-01T07:34:20;94896.22;;;22.20;45.87
8049;BME280;20935;42.660;23.342;2023-05-01T07:37:05;94891.53;;;22.21;45.66
8049;BME280;20935;42.660;23.342;2023-05-01T07:39:52;94895.03;;;22.21;45.84
8049;BME280;20935;42.660;23.342;2023-05-01T07:42:38;94894.53;;;22.23;45.81
8049;BME280;20935;42.660;23.342;2023-05-01T07:45:23;94896.06;;;22.24;45.95
8049;BME280;20935;42.660;23.342;2023-05-01T07:48:09;94887.56;;;22.22;45.86
8049;BME280;20935;42.660;23.342;2023-05-01T07:50:55;94892.88;;;22.25;45.66
8049;BME280;20935;42.660;23.342;2023-05-01T07:53:40;94890.41;;;22.27;45.75
8049;BME280;20935;42.660;23.342;2023-05-01T07:56:27;94893.16;;;22.27;45.74
8049;BME280;20935;42.660;23.342;2023-05-01T07:59:14;94892.69;;;22.29;45.67
8049;BME280;20935;42.660;23.342;2023-05-01T08:01:59;94894.19;;;22.30;45.64
8049;BME280;20935;42.660;23.342;2023-05-01T08:04:45;94887.22;;;22.29;45.88
8049;BME280;20935;42.660;23.342;2023-05-01T08:07:31;94897.22;;;22.32;45.92
8049;BME280;20935;42.660;23.342;2023-05-01T08:10:16;94894.50;;;22.32;45.77
8049;BME280;20935;42.660;23.342;2023-05-01T08:13:03;94896.00;;;22.33;45.96
8049;BME280;20935;42.660;23.342;2023-05-01T08:15:48;94902.19;;;22.33;45.79
8049;BME280;20935;42.660;23.342;2023-05-01T08:18:34;94891.28;;;22.33;45.86
8049;BME280;20935;42.660;23.342;2023-05-01T08:21:20;94892.78;;;22.34;45.71
8049;BME280;20935;42.660;23.342;2023-05-01T08:24:08;94887.81;;;22.33;45.55
8049;BME280;20935;42.660;23.342;2023-05-01T08:26:53;94888.09;;;22.35;45.90
8049;BME280;20935;42.660;23.342;2023-05-01T08:29:40;94890.38;;;22.36;45.79
8049;BME280;20935;42.660;23.342;2023-05-01T08:32:25;94890.38;;;22.36;45.55
8049;BME280;20935;42.660;23.342;2023-05-01T08:35:11;94889.13;;;22.37;45.79
8049;BME280;20935;42.660;23.342;2023-05-01T08:37:56;94892.16;;;22.39;45.54
8049;BME280;20935;42.660;23.342;2023-05-01T08:40:46;94880.47;;;22.39;45.70
8049;BME280;20935;42.660;23.342;2023-05-01T08:43:33;94882.00;;;22.40;45.89
8049;BME280;20935;42.660;23.342;2023-05-01T08:49:26;94885.00;;;22.42;45.70
8049;BME280;20935;42.660;23.342;2023-05-01T08:52:13;94887.28;;;22.43;45.69
8049;BME280;20935;42.660;23.342;2023-05-01T08:54:58;94881.81;;;22.43;45.84
8049;BME280;20935;42.660;23.342;2023-05-01T08:57:45;94884.09;;;22.45;45.90
8049;BME280;20935;42.660;23.342;2023-05-01T09:00:31;94870.44;;;22.45;45.74
8049;BME280;20935;42.660;23.342;2023-05-01T09:03:20;94873.16;;;22.45;45.56
8049;BME280;20935;42.660;23.342;2023-05-01T09:06:06;94876.16;;;22.47;45.63
8049;BME280;20935;42.660;23.342;2023-05-01T09:08:53;94866.75;;;22.48;45.78
8049;BME280;20935;42.660;23.342;2023-05-01T09:11:38;94871.75;;;22.49;45.56
8049;BME280;20935;42.660;23.342;2023-05-01T09:14:24;94871.28;;;22.51;45.79
8049;BME280;20935;42.660;23.342;2023-05-01T09:17:10;94872.81;;;22.52;45.80
8049;BME280;20935;42.660;23.342;2023-05-01T09:19:57;94879.03;;;22.53;45.64
8049;BME280;20935;42.660;23.342;2023-05-01T09:22:43;94877.78;;;22.54;45.49
8049;BME280;20935;42.660;23.342;2023-05-01T09:25:28;94875.34;;;22.56;45.37
8049;BME280;20935;42.660;23.342;2023-05-01T09:28:14;94873.38;;;22.56;45.43
8049;BME280;20935;42.660;23.342;2023-05-01T09:31:00;94879.88;;;22.59;45.45
8049;BME280;20935;42.660;23.342;2023-05-01T09:33:51;94875.91;;;22.60;45.44
8049;BME280;20935;42.660;23.342;2023-05-01T09:36:44;94872.72;;;22.61;45.38
8049;BME280;20935;42.660;23.342;2023-05-01T09:39:30;94870.00;;;22.61;45.57
8049;BME280;20935;42.660;23.342;2023-05-01T09:42:22;94867.53;;;22.63;45.35
8049;BME280;20935;42.660;23.342;2023-05-01T09:45:12;94874.97;;;22.63;45.40
8049;BME280;20935;42.660;23.342;2023-05-01T09:48:06;94869.06;;;22.64;45.46
8049;BME280;20935;42.660;23.342;2023-05-01T09:50:53;94871.31;;;22.66;45.31
8049;BME280;20935;42.660;23.342;2023-05-01T09:53:40;94868.13;;;22.67;45.56
8049;BME280;20935;42.660;23.342;2023-05-01T09:56:26;94869.66;;;22.68;45.63
8049;BME280;20935;42.660;23.342;2023-05-01T09:59:16;94864.47;;;22.70;45.42
8049;BME280;20935;42.660;23.342;2023-05-01T10:02:02;94867.50;;;22.72;45.33
8049;BME280;20935;42.660;23.342;2023-05-01T10:04:48;94852.16;;;22.75;45.42
8049;BME280;20935;42.660;23.342;2023-05-01T10:07:33;94856.38;;;22.76;45.33
8049;BME280;20935;42.660;23.342;2023-05-01T10:10:20;94854.69;;;22.78;45.34
8049;BME280;20935;42.660;23.342;2023-05-01T10:13:12;94855.75;;;22.81;45.25
8049;BME280;20935;42.660;23.342;2023-05-01T10:15:58;94854.50;;;22.82;45.69
8049;BME280;20935;42.660;23.342;2023-05-01T10:18:46;94858.00;;;22.82;45.36
8049;BME280;20935;42.660;23.342;2023-05-01T10:21:32;94852.81;;;22.84;45.45
8049;BME280;20935;42.660;23.342;2023-05-01T10:24:18;94842.16;;;22.86;45.27
8049;BME280;20935;42.660;23.342;2023-05-01T10:27:06;94851.88;;;22.87;45.32
8049;BME280;20935;42.660;23.342;2023-05-01T10:29:52;94851.41;;;22.89;45.45
8049;BME280;20935;42.660;23.342;2023-05-01T10:32:40;94845.00;;;22.92;45.40
8049;BME280;20935;42.660;23.342;2023-05-01T10:35:29;94846.03;;;22.94;45.46
8049;BME280;20935;42.660;23.342;2023-05-01T10:38:21;94849.06;;;22.97;45.46
8049;BME280;20935;42.660;23.342;2023-05-01T10:41:08;94848.56;;;22.98;45.48
8049;BME280;20935;42.660;23.342;2023-05-01T10:44:18;94851.59;;;23.00;45.20
8049;BME280;20935;42.660;23.342;2023-05-01T10:50:24;94840.38;;;22.98;45.24
8049;BME280;20935;42.660;23.342;2023-05-01T10:53:16;94846.34;;;22.97;45.26
8049;BME280;20935;42.660;23.342;2023-05-01T10:56:02;94850.75;;;22.94;45.41
8049;BME280;20935;42.660;23.342;2023-05-01T10:58:56;94843.69;;;22.73;46.03
8049;BME280;20935;42.660;23.342;2023-05-01T11:01:44;94844.81;;;22.81;45.65
8049;BME280;20935;42.660;23.342;2023-05-01T11:04:47;94848.13;;;22.85;45.60
8049;BME280;20935;42.660;23.342;2023-05-01T11:07:33;94847.63;;;22.86;45.45
8049;BME280;20935;42.660;23.342;2023-05-01T11:10:24;94845.38;;;22.85;45.64
8049;BME280;20935;42.660;23.342;2023-05-01T11:13:10;94848.84;;;22.85;45.57
8049;BME280;20935;42.660;23.342;2023-05-01T11:15:55;94848.84;;;22.85;45.52
8049;BME280;20935;42.660;23.342;2023-05-01T11:18:45;94851.88;;;22.87;45.32
8049;BME280;20935;42.660;23.342;2023-05-01T11:21:32;94855.06;;;22.86;45.30
8049;BME280;20935;42.660;23.342;2023-05-01T11:24:18;94848.84;;;22.85;45.59
8049;BME280;20935;42.660;23.342;2023-05-01T11:27:05;94844.63;;;22.84;45.34
8049;BME280;20935;42.660;23.342;2023-05-01T11:29:52;94846.59;;;22.84;45.60
8049;BME280;20935;42.660;23.342;2023-05-01T11:32:42;94849.34;;;22.84;45.49
8049;BME280;20935;42.660;23.342;2023-05-01T11:35:30;94845.38;;;22.85;45.50
8049;BME280;20935;42.660;23.342;2023-05-01T11:38:16;94847.06;;;22.82;45.64
8049;BME280;20935;42.660;23.342;2023-05-01T11:41:02;94839.16;;;22.84;45.77
8049;BME280;20935;42.660;23.342;2023-05-01T11:43:48;94846.88;;;22.86;45.66
8049;BME280;20935;42.660;23.342;2023-05-01T11:46:35;94844.44;;;22.88;45.32
8049;BME280;20935;42.660;23.342;2023-05-01T11:49:25;94846.69;;;22.89;45.39
8049;BME280;20935;42.660;23.342;2023-05-01T11:52:12;94836.31;;;22.93;45.52
8049;BME280;20935;42.660;23.342;2023-05-01T11:54:58;94838.84;;;22.97;45.43
8049;BME280;20935;42.660;23.342;2023-05-01T11:57:47;94843.03;;;22.92;45.46
8049;BME280;20935;42.660;23.342;2023-05-01T12:00:34;94835.41;;;22.97;45.64
8049;BME280;20935;42.660;23.342;2023-05-01T12:03:21;94838.59;;;22.95;45.59
8049;BME280;20935;42.660;23.342;2023-05-01T12:06:09;94842.53;;;22.94;45.63
8049;BME280;20935;42.660;23.342;2023-05-01T12:08:57;94845.47;;;23.05;45.47
8049;BME280;20935;42.660;23.342;2023-05-01T12:11:43;94848.28;;;23.11;45.47
8049;BME280;20935;42.660;23.342;2023-05-01T12:14:29;94860.25;;;23.13;45.14
8049;BME280;20935;42.660;23.342;2023-05-01T12:17:15;94848.50;;;23.07;45.59
8049;BME280;20935;42.660;23.342;2023-05-01T12:20:01;94866.59;;;23.05;45.39
8049;BME280;20935;42.660;23.342;2023-05-01T12:22:48;94864.88;;;23.07;45.43
8049;BME280;20935;42.660;23.342;2023-05-01T12:25:36;94858.75;;;23.12;45.32
8049;BME280;20935;42.660;23.342;2023-05-01T12:28:22;94865.44;;;23.11;45.10
8049;BME280;20935;42.660;23.342;2023-05-01T12:31:07;94871.94;;;23.14;45.18
8049;BME280;20935;42.660;23.342;2023-05-01T12:33:55;94865.91;;;23.10;45.42
8049;BME280;20935;42.660;23.342;2023-05-01T12:36:41;94870.63;;;23.09;45.27
8049;BME280;20935;42.660;23.342;2023-05-01T12:39:37;94859.69;;;23.09;45.34
8049;BME280;20935;42.660;23.342;2023-05-01T12:42:26;94875.34;;;23.09;45.30
8049;BME280;20935;42.660;23.342;2023-05-01T12:45:11;94863.66;;;23.08;45.18
8049;BME280;20935;42.660;23.342;2023-05-01T12:47:58;94858.19;;;23.08;45.32
8049;BME280;20935;42.660;23.342;2023-05-01T12:50:44;94860.44;;;23.10;45.48
8049;BME280;20935;42.660;23.342;2023-05-01T12:53:30;94863.47;;;23.12;45.36
8049;BME280;20935;42.660;23.342;2023-05-01T12:56:23;94854.16;;;23.04;45.57
8049;BME280;20935;42.660;23.342;2023-05-01T12:59:19;94857.44;;;23.08;45.22
8049;BME280;20935;42.660;23.342;2023-05-01T13:02:06;94863.47;;;23.12;45.40
8049;BME280;20935;42.660;23.342;2023-05-01T13:05:04;94862.53;;;23.15;45.39
8049;BME280;20935;42.660;23.342;2023-05-01T13:07:50;94859.78;;;23.15;45.21
8049;BME280;20935;42.660;23.342;2023-05-01T13:10:36;94855.34;;;23.17;45.30
8049;BME280;20935;42.660;23.342;2023-05-01T13:13:23;94860.34;;;23.19;45.13
8049;BME280;20935;42.660;23.342;2023-05-01T13:16:11;94863.38;;;23.21;45.14
8049;BME280;20935;42.660;23.342;2023-05-01T13:18:57;94864.59;;;23.20;44.97
8049;BME280;20935;42.660;23.342;2023-05-01T13:21:46;94862.69;;;23.26;45.01
8049;BME280;20935;42.660;23.342;2023-05-01T13:24:37;94863.75;;;23.28;45.17
8049;BME280;20935;42.660;23.342;2023-05-01T13:27:24;94868.72;;;23.30;45.01
8049;BME280;20935;42.660;23.342;2023-05-01T13:30:11;94871.00;;;23.31;44.99
8049;BME280;20935;42.660;23.342;2023-05-01T13:32:58;94877.97;;;23.32;45.20
8049;BME280;20935;42.660;23.342;2023-05-01T13:35:43;94879.97;;;23.32;44.89
8049;BME280;20935;42.660;23.342;2023-05-01T13:38:29;94879.97;;;23.32;45.14
8049;BME280;20935;42.660;23.342;2023-05-01T13:41:20;94880.22;;;23.34;45.00
8049;BME280;20935;42.660;23.342;2023-05-01T13:44:05;94884.75;;;23.37;45.03
8049;BME280;20935;42.660;23.342;2023-05-01T13:46:51;94880.34;;;23.39;45.05
8049;BME280;20935;42.660;23.342;2023-05-01T13:49:40;94886.56;;;23.40;44.83
8049;BME280;20935;42.660;23.342;2023-05-01T13:52:25;94882.44;;;23.45;44.83
8049;BME280;20935;42.660;23.342;2023-05-01T13:55:11;94900.22;;;23.40;44.89
8049;BME280;20935;42.660;23.342;2023-05-01T13:57:57;94896.25;;;23.41;45.06
8049;BME280;20935;42.660;23.342;2023-05-01T14:00:43;94887.31;;;23.40;45.09
8049;BME280;20935;42.660;23.342;2023-05-01T14:03:35;94903.72;;;23.40;45.04
8049;BME280;20935;42.660;23.342;2023-05-01T14:06:24;94897.75;;;23.42;45.05
8049;BME280;20935;42.660;23.342;2023-05-01T14:09:11;94897.00;;;23.41;44.92
8049;BME280;20935;42.660;23.342;2023-05-01T14:11:57;94891.09;;;23.43;45.15
8049;BME280;20935;42.660;23.342;2023-05-01T14:14:46;94886.06;;;23.41;45.13
8049;BME280;20935;42.660;23.342;2023-05-01T14:17:33;94889.88;;;23.44;45.04
8049;BME280;20935;42.660;23.342;2023-05-01T14:20:20;94891.38;;;23.45;44.96
8049;BME280;20935;42.660;23.342;2023-05-01T14:23:10;94895.34;;;23.44;45.04
8049;BME280;20935;42.660;23.342;2023-05-01T14:25:55;94892.13;;;23.46;44.98
8049;BME280;20935;42.660;23.342;2023-05-01T14:28:41;94886.19;;;23.47;44.97
8049;BME280;20935;42.660;23.342;2023-05-01T14:31:28;94886.66;;;23.46;45.02
8049;BME280;20935;42.660;23.342;2023-05-01T14:34:16;94886.66;;;23.46;44.96
8049;BME280;20935;42.660;23.342;2023-05-01T14:37:02;94879.41;;;23.43;45.09
8049;BME280;20935;42.660;23.342;2023-05-01T14:39:48;94887.59;;;23.43;45.05
8049;BME280;20935;42.660;23.342;2023-05-01T14:42:34;94881.34;;;23.42;45.22
8049;BME280;20935;42.660;23.342;2023-05-01T14:45:20;94882.91;;;23.43;45.26
8049;BME280;20935;42.660;23.342;2023-05-01T14:48:05;94875.88;;;23.42;45.11
8049;BME280;20935;42.660;23.342;2023-05-01T14:50:51;94878.63;;;23.42;45.05
8049;BME280;20935;42.660;23.342;2023-05-01T14:53:39;94878.63;;;23.42;45.07
8049;BME280;20935;42.660;23.342;2023-05-01T14:56:28;94864.94;;;23.42;45.27